Time,TemperatureF,DewpointF,PressureIn,WindDirection,WindDirectionDegrees,WindSpeedMPH,WindSpeedGustMPH,Humidity,HourlyPrecipIn,Conditions,Clouds,dailyrainin,SoftwareType,DateUTC
2013-04-18 00:01:00,66.2,65.0,30.14,ENE,71,0.0,1.0,96,0.00,,---,0.00,VWS V14.01,2013-04-18 04:01:00,
2013-04-18 00:06:00,66.3,65.1,30.14,ENE,58,1.0,1.0,96,0.00,,---,0.00,VWS V14.01,2013-04-18 04:06:00,
2013-04-18 00:11:00,66.4,65.2,30.15,North,6,2.0,2.0,96,0.00,,---,0.00,VWS V14.01,2013-04-18 04:11:00,
2013-04-18 00:16:00,66.1,64.9,30.15,NNE,15,0.0,1.0,96,0.00,,---,0.00,VWS V14.01,2013-04-18 04:16:00,
2013-04-18 00:21:00,66.2,65.0,30.14,NNE,31,1.0,1.0,96,0.00,,---,0.00,VWS V14.01,2013-04-18 04:21:00,
2013-04-18 00:26:00,66.2,65.0,30.15,NNE,29,0.0,1.0,96,0.00,,---,0.00,VWS V14.01,2013-04-18 04:26:00,
2013-04-18 00:31:00,66.1,64.9,30.14,NNE,30,1.0,1.0,96,0.00,,---,0.00,VWS V14.01,2013-04-18 04:31:00,
2013-04-18 00:36:00,66.2,65.3,30.14,ENE,65,2.0,2.0,97,0.00,,---,0.00,VWS V14.01,2013-04-18 04:36:00,
2013-04-18 00:41:00,66.2,65.3,30.14,ENE,75,2.0,3.0,97,0.00,,---,0.00,VWS V14.01,2013-04-18 04:41:00,
2013-04-18 00:46:00,66.1,65.2,30.13,ENE,69,2.0,2.0,97,0.00,,---,0.00,VWS V14.01,2013-04-18 04:46:00,
2013-04-18 00:51:00,66.0,65.1,30.13,ENE,61,3.0,3.0,97,0.00,,---,0.00,VWS V14.01,2013-04-18 04:51:00,
2013-04-18 00:56:00,66.1,65.2,30.13,ENE,67,2.0,3.0,97,0.00,,---,0.00,VWS V14.01,2013-04-18 04:56:00,
2013-04-18 01:01:00,66.2,65.3,30.13,ENE,58,1.0,1.0,97,0.00,,---,0.00,VWS V14.01,2013-04-18 05:01:00,
2013-04-18 01:06:00,66.2,65.3,30.13,ENE,60,2.0,2.0,97,0.00,,---,0.00,VWS V14.01,2013-04-18 05:06:00,
2013-04-18 01:12:00,66.2,65.0,30.13,NE,53,2.0,3.0,96,0.00,,---,0.00,VWS V14.01,2013-04-18 05:12:00,
2013-04-18 01:16:00,66.3,65.1,30.13,ENE,62,3.0,3.0,96,0.00,,---,0.00,VWS V14.01,2013-04-18 05:16:00,
2013-04-18 01:22:00,66.3,65.1,30.12,ENE,68,3.0,3.0,96,0.00,,---,0.00,VWS V14.01,2013-04-18 05:22:00,
2013-04-18 01:26:00,66.2,65.0,30.12,ENE,58,3.0,3.0,96,0.00,,---,0.00,VWS V14.01,2013-04-18 05:26:00,
2013-04-18 01:31:00,66.3,65.1,30.12,ENE,70,2.0,3.0,96,0.00,,---,0.00,VWS V14.01,2013-04-18 05:31:00,
2013-04-18 01:36:00,66.3,65.1,30.12,NE,53,2.0,3.0,96,0.00,,---,0.00,VWS V14.01,2013-04-18 05:36:00,
2013-04-18 01:42:00,66.4,65.5,30.11,ENE,67,2.0,2.0,97,0.00,,---,0.00,VWS V14.01,2013-04-18 05:42:00,
2013-04-18 01:46:00,66.4,65.2,30.11,ENE,67,3.0,3.0,96,0.00,,---,0.00,VWS V14.01,2013-04-18 05:46:00,
2013-04-18 01:52:00,66.3,65.1,30.11,ENE,64,2.0,3.0,96,0.00,,---,0.00,VWS V14.01,2013-04-18 05:52:00,
2013-04-18 01:56:00,66.4,65.2,30.11,NE,50,2.0,3.0,96,0.00,,---,0.00,VWS V14.01,2013-04-18 05:56:00,
2013-04-18 02:01:00,66.5,65.3,30.11,ENE,64,2.0,3.0,96,0.00,,---,0.00,VWS V14.01,2013-04-18 06:01:00,
2013-04-18 02:06:00,66.4,65.2,30.11,NE,53,3.0,3.0,96,0.00,,---,0.00,VWS V14.01,2013-04-18 06:06:00,
2013-04-18 02:11:00,66.5,65.3,30.11,ENE,63,2.0,4.0,96,0.00,,---,0.00,VWS V14.01,2013-04-18 06:11:00,
2013-04-18 02:16:00,66.5,65.3,30.11,ENE,72,3.0,4.0,96,0.00,,---,0.00,VWS V14.01,2013-04-18 06:16:00,
2013-04-18 02:21:00,66.5,65.3,30.11,ENE,64,3.0,3.0,96,0.00,,---,0.00,VWS V14.01,2013-04-18 06:21:00,
2013-04-18 02:26:00,66.5,65.3,30.10,ENE,72,1.0,3.0,96,0.00,,---,0.00,VWS V14.01,2013-04-18 06:26:00,
2013-04-18 02:31:00,66.4,65.2,30.10,ENE,70,2.0,3.0,96,0.00,,---,0.00,VWS V14.01,2013-04-18 06:31:00,
2013-04-18 02:36:00,66.4,65.2,30.10,ENE,72,2.0,3.0,96,0.00,,---,0.00,VWS V14.01,2013-04-18 06:36:00,
2013-04-18 02:41:00,66.4,65.2,30.10,ENE,70,2.0,2.0,96,0.00,,---,0.00,VWS V14.01,2013-04-18 06:41:00,
2013-04-18 02:46:00,66.5,65.6,30.10,ENE,67,1.0,3.0,97,0.00,,---,0.00,VWS V14.01,2013-04-18 06:46:00,
2013-04-18 02:51:00,66.6,65.7,30.10,ENE,65,2.0,2.0,97,0.00,,---,0.00,VWS V14.01,2013-04-18 06:51:00,
2013-04-18 02:56:00,66.6,65.7,30.10,ENE,63,2.0,2.0,97,0.00,,---,0.00,VWS V14.01,2013-04-18 06:56:00,
2013-04-18 03:02:00,66.6,65.4,30.10,ENE,63,2.0,3.0,96,0.00,,---,0.00,VWS V14.01,2013-04-18 07:02:00,
2013-04-18 03:06:00,66.6,65.4,30.10,ENE,65,4.0,4.0,96,0.00,,---,0.00,VWS V14.01,2013-04-18 07:06:00,
2013-04-18 03:11:00,66.7,65.8,30.10,East,81,2.0,3.0,97,0.00,,---,0.00,VWS V14.01,2013-04-18 07:11:00,
2013-04-18 03:16:00,66.7,65.8,30.09,East,90,2.0,3.0,97,0.00,,---,0.00,VWS V14.01,2013-04-18 07:16:00,
2013-04-18 03:21:00,66.7,65.5,30.09,ENE,77,3.0,3.0,96,0.00,,---,0.00,VWS V14.01,2013-04-18 07:21:00,
2013-04-18 03:26:00,66.8,65.6,30.09,ENE,75,3.0,4.0,96,0.00,,---,0.00,VWS V14.01,2013-04-18 07:26:00,
2013-04-18 03:31:00,66.8,65.6,30.09,ENE,72,3.0,3.0,96,0.00,,---,0.00,VWS V14.01,2013-04-18 07:31:00,
2013-04-18 03:36:00,66.9,65.7,30.09,ENE,72,2.0,3.0,96,0.00,,---,0.00,VWS V14.01,2013-04-18 07:36:00,
2013-04-18 03:41:00,67.0,65.8,30.09,ENE,64,3.0,4.0,96,0.00,,---,0.00,VWS V14.01,2013-04-18 07:41:00,
2013-04-18 03:46:00,67.1,65.9,30.09,East,88,2.0,4.0,96,0.00,,---,0.00,VWS V14.01,2013-04-18 07:46:00,
2013-04-18 03:51:00,67.2,66.0,30.09,ENE,76,2.0,3.0,96,0.00,,---,0.00,VWS V14.01,2013-04-18 07:51:00,
2013-04-18 03:56:00,67.3,66.1,30.08,East,95,3.0,4.0,96,0.00,,---,0.00,VWS V14.01,2013-04-18 07:56:00,
2013-04-18 04:01:00,67.3,66.1,30.08,East,84,4.0,4.0,96,0.00,,---,0.00,VWS V14.01,2013-04-18 08:01:00,
2013-04-18 04:06:00,67.3,66.1,30.08,East,93,2.0,5.0,96,0.00,,---,0.00,VWS V14.01,2013-04-18 08:06:00,
2013-04-18 04:11:00,67.4,66.2,30.08,East,100,2.0,4.0,96,0.00,,---,0.00,VWS V14.01,2013-04-18 08:11:00,
2013-04-18 04:16:00,67.4,65.9,30.08,East,98,1.0,3.0,95,0.00,,---,0.00,VWS V14.01,2013-04-18 08:16:00,
2013-04-18 04:21:00,67.4,65.9,30.08,East,82,3.0,4.0,95,0.00,,---,0.00,VWS V14.01,2013-04-18 08:21:00,
2013-04-18 04:26:00,67.5,66.0,30.08,ENE,72,2.0,3.0,95,0.00,,---,0.00,VWS V14.01,2013-04-18 08:26:00,
2013-04-18 04:31:00,67.6,66.1,30.08,East,89,2.0,3.0,95,0.00,,---,0.00,VWS V14.01,2013-04-18 08:31:00,
2013-04-18 04:36:00,67.5,66.0,30.08,East,94,2.0,2.0,95,0.00,,---,0.00,VWS V14.01,2013-04-18 08:36:00,
2013-04-18 04:41:00,67.4,65.9,30.08,East,98,3.0,3.0,95,0.00,,---,0.00,VWS V14.01,2013-04-18 08:41:00,
2013-04-18 04:46:00,67.3,65.8,30.08,East,93,3.0,3.0,95,0.00,,---,0.00,VWS V14.01,2013-04-18 08:46:00,
2013-04-18 04:51:00,67.3,66.1,30.08,East,98,3.0,4.0,96,0.00,,---,0.00,VWS V14.01,2013-04-18 08:51:00,
2013-04-18 04:56:00,67.4,66.2,30.08,East,93,3.0,4.0,96,0.00,,---,0.00,VWS V14.01,2013-04-18 08:56:00,
2013-04-18 05:01:00,67.5,66.3,30.08,East,81,5.0,5.0,96,0.00,,---,0.00,VWS V14.01,2013-04-18 09:01:00,
2013-04-18 05:06:00,67.6,66.4,30.08,East,92,2.0,3.0,96,0.00,,---,0.00,VWS V14.01,2013-04-18 09:06:00,
2013-04-18 05:11:00,67.6,66.4,30.07,East,98,3.0,4.0,96,0.00,,---,0.00,VWS V14.01,2013-04-18 09:11:00,
2013-04-18 05:16:00,67.6,66.4,30.08,East,84,2.0,5.0,96,0.00,,---,0.00,VWS V14.01,2013-04-18 09:16:00,
2013-04-18 05:21:00,67.6,66.4,30.08,East,89,2.0,3.0,96,0.00,,---,0.00,VWS V14.01,2013-04-18 09:21:00,
2013-04-18 05:26:00,67.6,66.4,30.08,ENE,76,2.0,3.0,96,0.00,,---,0.00,VWS V14.01,2013-04-18 09:26:00,
2013-04-18 05:31:00,67.6,66.4,30.08,ENE,72,2.0,2.0,96,0.00,,---,0.00,VWS V14.01,2013-04-18 09:31:00,
2013-04-18 05:36:00,67.6,66.4,30.08,ENE,74,2.0,2.0,96,0.00,,---,0.00,VWS V14.01,2013-04-18 09:36:00,
2013-04-18 05:41:00,67.6,66.4,30.08,ENE,74,2.0,3.0,96,0.00,,---,0.00,VWS V14.01,2013-04-18 09:41:00,
2013-04-18 05:46:00,67.5,66.3,30.09,East,100,2.0,3.0,96,0.00,,---,0.00,VWS V14.01,2013-04-18 09:46:00,
2013-04-18 05:51:00,67.4,66.2,30.09,ESE,103,1.0,3.0,96,0.00,,---,0.00,VWS V14.01,2013-04-18 09:51:00,
2013-04-18 05:56:00,67.4,66.2,30.09,East,96,2.0,3.0,96,0.00,,---,0.00,VWS V14.01,2013-04-18 09:56:00,
2013-04-18 06:01:00,67.5,66.6,30.09,East,82,1.0,2.0,97,0.00,,---,0.00,VWS V14.01,2013-04-18 10:01:00,
2013-04-18 06:06:00,67.6,66.7,30.09,ENE,77,3.0,3.0,97,0.00,,---,0.00,VWS V14.01,2013-04-18 10:06:00,
2013-04-18 06:11:00,67.7,66.8,30.09,East,83,3.0,3.0,97,0.00,,---,0.00,VWS V14.01,2013-04-18 10:11:00,
2013-04-18 06:16:00,67.7,66.8,30.10,East,91,1.0,2.0,97,0.00,,---,0.00,VWS V14.01,2013-04-18 10:16:00,
2013-04-18 06:21:00,67.7,66.5,30.10,ENE,77,2.0,2.0,96,0.00,,---,0.00,VWS V14.01,2013-04-18 10:21:00,
2013-04-18 06:26:00,67.7,66.5,30.10,ENE,76,2.0,2.0,96,0.00,,---,0.00,VWS V14.01,2013-04-18 10:26:00,
2013-04-18 06:31:00,67.6,66.4,30.10,ENE,67,2.0,2.0,96,0.00,,---,0.00,VWS V14.01,2013-04-18 10:31:00,
2013-04-18 06:36:00,67.6,66.4,30.10,East,86,1.0,2.0,96,0.00,,---,0.00,VWS V14.01,2013-04-18 10:36:00,
2013-04-18 06:41:00,67.5,66.3,30.10,ENE,74,2.0,2.0,96,0.00,,---,0.00,VWS V14.01,2013-04-18 10:41:00,
2013-04-18 06:46:00,67.3,66.4,30.11,ESE,110,0.0,0.0,97,0.00,,---,0.00,VWS V14.01,2013-04-18 10:46:00,
2013-04-18 06:51:00,67.3,66.4,30.10,East,91,1.0,1.0,97,0.00,,---,0.00,VWS V14.01,2013-04-18 10:51:00,
2013-04-18 06:56:00,67.1,66.2,30.11,ENE,77,0.0,2.0,97,0.00,,---,0.00,VWS V14.01,2013-04-18 10:56:00,
2013-04-18 07:01:00,67.0,66.1,30.11,ENE,72,1.0,2.0,97,0.00,,---,0.00,VWS V14.01,2013-04-18 11:01:00,
2013-04-18 07:06:00,66.9,66.0,30.12,ENE,72,0.0,0.0,97,0.00,,---,0.00,VWS V14.01,2013-04-18 11:06:00,
2013-04-18 07:12:00,67.0,66.4,30.12,ENE,72,0.0,1.0,98,0.00,,---,0.00,VWS V14.01,2013-04-18 11:12:00,
2013-04-18 07:17:00,67.1,66.5,30.12,ENE,73,1.0,2.0,98,0.00,,---,0.00,VWS V14.01,2013-04-18 11:17:00,
2013-04-18 07:22:00,67.1,66.5,30.12,East,81,3.0,3.0,98,0.00,,---,0.00,VWS V14.01,2013-04-18 11:22:00,
2013-04-18 07:27:00,67.1,66.5,30.12,East,91,2.0,3.0,98,0.00,,---,0.00,VWS V14.01,2013-04-18 11:27:00,
2013-04-18 07:32:00,67.3,66.7,30.12,ESE,105,2.0,3.0,98,0.00,,---,0.00,VWS V14.01,2013-04-18 11:32:00,
2013-04-18 07:37:00,67.5,66.9,30.12,East,87,2.0,3.0,98,0.00,,---,0.00,VWS V14.01,2013-04-18 11:37:00,
2013-04-18 07:42:00,67.7,67.1,30.12,East,94,2.0,3.0,98,0.00,,---,0.00,VWS V14.01,2013-04-18 11:42:00,
2013-04-18 07:47:00,67.9,67.3,30.12,East,89,2.0,3.0,98,0.00,,---,0.00,VWS V14.01,2013-04-18 11:47:00,
2013-04-18 07:52:00,68.2,67.3,30.12,ESE,103,2.0,3.0,97,0.00,,---,0.00,VWS V14.01,2013-04-18 11:52:00,
2013-04-18 07:57:00,68.4,67.5,30.12,East,98,3.0,3.0,97,0.00,,---,0.00,VWS V14.01,2013-04-18 11:57:00,
2013-04-18 08:02:00,68.8,67.9,30.13,SE,127,7.0,9.0,97,0.00,,---,0.00,VWS V14.01,2013-04-18 12:02:00,
2013-04-18 08:07:00,69.4,67.9,30.13,East,91,10.0,12.0,95,0.00,,---,0.00,VWS V14.01,2013-04-18 12:07:00,
2013-04-18 08:12:00,69.5,67.7,30.13,SE,127,9.0,11.0,94,0.00,,---,0.00,VWS V14.01,2013-04-18 12:12:00,
2013-04-18 08:17:00,69.2,67.4,30.14,ESE,114,11.0,14.0,94,0.00,,---,0.00,VWS V14.01,2013-04-18 12:17:00,
2013-04-18 08:22:00,68.8,66.7,30.14,ESE,110,8.0,10.0,93,0.00,,---,0.00,VWS V14.01,2013-04-18 12:22:00,
2013-04-18 08:27:00,68.5,66.7,30.14,SE,136,3.0,8.0,94,0.01,,---,0.01,VWS V14.01,2013-04-18 12:27:00,
2013-04-18 08:32:00,68.3,66.8,30.14,ESE,120,7.0,10.0,95,0.01,,---,0.01,VWS V14.01,2013-04-18 12:32:00,
2013-04-18 08:37:00,68.4,66.9,30.13,ESE,103,4.0,6.0,95,0.01,,---,0.01,VWS V14.01,2013-04-18 12:37:00,
2013-04-18 08:42:00,68.5,67.0,30.14,ESE,109,11.0,11.0,95,0.01,,---,0.01,VWS V14.01,2013-04-18 12:42:00,
2013-04-18 08:47:00,68.5,67.0,30.14,East,93,11.0,14.0,95,0.01,,---,0.01,VWS V14.01,2013-04-18 12:47:00,
2013-04-18 08:52:00,68.0,66.5,30.14,East,85,6.0,14.0,95,0.01,,---,0.01,VWS V14.01,2013-04-18 12:52:00,
2013-04-18 08:57:00,67.6,66.1,30.14,ENE,72,11.0,12.0,95,0.03,,---,0.03,VWS V14.01,2013-04-18 12:57:00,
2013-04-18 09:02:00,67.4,66.2,30.14,East,86,8.0,10.0,96,0.03,,---,0.03,VWS V14.01,2013-04-18 13:02:00,
2013-04-18 09:07:00,67.6,66.7,30.14,East,95,6.0,7.0,97,0.03,,---,0.03,VWS V14.01,2013-04-18 13:07:00,
2013-04-18 09:12:00,67.6,66.7,30.13,ENE,71,7.0,8.0,97,0.04,,---,0.04,VWS V14.01,2013-04-18 13:12:00,
2013-04-18 09:17:00,67.8,66.9,30.13,East,101,7.0,7.0,97,0.04,,---,0.04,VWS V14.01,2013-04-18 13:17:00,
2013-04-18 09:22:00,67.9,66.7,30.13,ESE,102,5.0,7.0,96,0.04,,---,0.04,VWS V14.01,2013-04-18 13:22:00,
2013-04-18 09:27:00,68.4,67.2,30.13,East,81,4.0,5.0,96,0.04,,---,0.04,VWS V14.01,2013-04-18 13:27:00,
2013-04-18 09:32:00,68.7,67.2,30.13,ESE,104,3.0,5.0,95,0.03,,---,0.04,VWS V14.01,2013-04-18 13:32:00,
2013-04-18 09:37:00,69.1,67.0,30.13,East,101,4.0,7.0,93,0.03,,---,0.04,VWS V14.01,2013-04-18 13:37:00,
2013-04-18 09:42:00,69.6,67.2,30.13,ESE,114,4.0,5.0,92,0.03,,---,0.04,VWS V14.01,2013-04-18 13:42:00,
2013-04-18 09:47:00,69.9,67.2,30.13,ESE,105,4.0,5.0,91,0.03,,---,0.04,VWS V14.01,2013-04-18 13:47:00,
2013-04-18 09:52:00,70.4,68.3,30.13,ENE,61,4.0,8.0,93,0.03,,---,0.04,VWS V14.01,2013-04-18 13:52:00,
2013-04-18 09:57:00,70.2,67.8,30.13,ESE,103,4.0,5.0,92,0.02,,---,0.04,VWS V14.01,2013-04-18 13:57:00,
2013-04-18 10:02:00,70.6,68.5,30.13,ENE,78,5.0,5.0,93,0.01,,---,0.04,VWS V14.01,2013-04-18 14:02:00,
2013-04-18 10:07:00,70.9,68.5,30.13,ENE,72,3.0,5.0,92,0.01,,---,0.04,VWS V14.01,2013-04-18 14:07:00,
2013-04-18 10:12:00,71.2,68.4,30.13,East,100,5.0,7.0,91,0.01,,---,0.04,VWS V14.01,2013-04-18 14:12:00,
2013-04-18 10:17:00,71.7,68.6,30.13,East,84,8.0,8.0,90,0.00,,---,0.04,VWS V14.01,2013-04-18 14:17:00,
2013-04-18 10:22:00,71.6,68.5,30.13,East,89,5.0,7.0,90,0.00,,---,0.04,VWS V14.01,2013-04-18 14:22:00,
2013-04-18 10:27:00,71.8,68.7,30.13,SE,131,5.0,6.0,90,0.00,,---,0.04,VWS V14.01,2013-04-18 14:27:00,
2013-04-18 10:32:00,71.9,68.8,30.13,ESE,117,7.0,7.0,90,0.00,,---,0.04,VWS V14.01,2013-04-18 14:32:00,
2013-04-18 10:37:00,72.3,69.2,30.13,ESE,120,8.0,9.0,90,0.00,,---,0.04,VWS V14.01,2013-04-18 14:37:00,
2013-04-18 10:42:00,72.6,68.8,30.13,ESE,104,6.0,9.0,88,0.00,,---,0.04,VWS V14.01,2013-04-18 14:42:00,
2013-04-18 10:47:00,72.8,68.7,30.14,East,90,8.0,8.0,87,0.00,,---,0.04,VWS V14.01,2013-04-18 14:47:00,
2013-04-18 10:52:00,73.1,69.3,30.14,ESE,111,6.0,9.0,88,0.00,,---,0.04,VWS V14.01,2013-04-18 14:52:00,
2013-04-18 10:57:00,73.5,69.7,30.14,East,98,6.0,7.0,88,0.00,,---,0.04,VWS V14.01,2013-04-18 14:57:00,
2013-04-18 11:02:00,73.8,69.3,30.14,ESE,113,7.0,12.0,86,0.00,,---,0.04,VWS V14.01,2013-04-18 15:02:00,
2013-04-18 11:07:00,73.9,69.1,30.14,ESE,117,5.0,8.0,85,0.00,,---,0.04,VWS V14.01,2013-04-18 15:07:00,
2013-04-18 11:12:00,73.9,69.1,30.14,ESE,109,7.0,10.0,85,0.00,,---,0.04,VWS V14.01,2013-04-18 15:12:00,
2013-04-18 11:17:00,74.2,69.4,30.14,SE,135,6.0,10.0,85,0.00,,---,0.04,VWS V14.01,2013-04-18 15:17:00,
2013-04-18 11:22:00,74.3,69.2,30.13,SE,141,5.0,14.0,84,0.00,,---,0.04,VWS V14.01,2013-04-18 15:22:00,
2013-04-18 11:27:00,74.3,68.8,30.13,ESE,108,7.0,9.0,83,0.00,,---,0.04,VWS V14.01,2013-04-18 15:27:00,
2013-04-18 11:32:00,74.6,69.4,30.13,East,96,8.0,12.0,84,0.00,,---,0.04,VWS V14.01,2013-04-18 15:32:00,
2013-04-18 11:37:00,74.7,69.2,30.13,SE,131,6.0,9.0,83,0.00,,---,0.04,VWS V14.01,2013-04-18 15:37:00,
2013-04-18 11:42:00,74.6,68.8,30.13,SE,125,12.0,13.0,82,0.00,,---,0.04,VWS V14.01,2013-04-18 15:42:00,
2013-04-18 11:47:00,74.4,68.2,30.13,SE,127,9.0,14.0,81,0.00,,---,0.04,VWS V14.01,2013-04-18 15:47:00,
2013-04-18 11:52:00,74.6,69.1,30.13,ESE,105,11.0,13.0,83,0.00,,---,0.04,VWS V14.01,2013-04-18 15:52:00,
2013-04-18 11:57:00,74.7,68.1,30.13,ESE,116,10.0,12.0,80,0.00,,---,0.04,VWS V14.01,2013-04-18 15:57:00,
2013-04-18 12:02:00,75.0,68.8,30.13,SE,131,6.0,13.0,81,0.00,,---,0.04,VWS V14.01,2013-04-18 16:02:00,
2013-04-18 12:07:00,75.2,68.6,30.13,ESE,119,10.0,13.0,80,0.00,,---,0.04,VWS V14.01,2013-04-18 16:07:00,
2013-04-18 12:12:00,75.3,68.7,30.13,SE,141,11.0,13.0,80,0.00,,---,0.04,VWS V14.01,2013-04-18 16:12:00,
2013-04-18 12:17:00,74.7,68.5,30.13,SE,131,6.0,9.0,81,0.00,,---,0.04,VWS V14.01,2013-04-18 16:17:00,
2013-04-18 12:22:00,74.5,67.9,30.13,ESE,111,8.0,13.0,80,0.00,,---,0.04,VWS V14.01,2013-04-18 16:22:00,
2013-04-18 12:27:00,74.8,68.6,30.13,SE,133,7.0,10.0,81,0.00,,---,0.04,VWS V14.01,2013-04-18 16:27:00,
2013-04-18 12:32:00,74.9,68.3,30.13,SE,128,14.0,16.0,80,0.00,,---,0.04,VWS V14.01,2013-04-18 16:32:00,
2013-04-18 12:37:00,74.6,68.0,30.13,SE,136,9.0,14.0,80,0.00,,---,0.04,VWS V14.01,2013-04-18 16:37:00,
2013-04-18 12:42:00,74.9,67.9,30.12,SE,129,8.0,10.0,79,0.00,,---,0.04,VWS V14.01,2013-04-18 16:42:00,
2013-04-18 12:47:00,75.2,68.2,30.12,SE,139,8.0,14.0,79,0.00,,---,0.04,VWS V14.01,2013-04-18 16:47:00,
2013-04-18 12:52:00,75.4,67.3,30.12,East,99,13.0,21.0,76,0.00,,---,0.04,VWS V14.01,2013-04-18 16:52:00,
2013-04-18 12:57:00,75.0,66.9,30.12,ESE,111,13.0,16.0,76,0.00,,---,0.04,VWS V14.01,2013-04-18 16:57:00,
2013-04-18 13:02:00,74.8,66.7,30.12,ESE,116,9.0,15.0,76,0.00,,---,0.04,VWS V14.01,2013-04-18 17:02:00,
2013-04-18 13:07:00,75.0,66.9,30.12,SE,131,6.0,18.0,76,0.00,,---,0.04,VWS V14.01,2013-04-18 17:07:00,
2013-04-18 13:12:00,74.9,67.6,30.11,ESE,117,12.0,15.0,78,0.00,,---,0.04,VWS V14.01,2013-04-18 17:12:00,
2013-04-18 13:17:00,75.0,67.7,30.12,SE,127,10.0,15.0,78,0.00,,---,0.04,VWS V14.01,2013-04-18 17:17:00,
2013-04-18 13:22:00,74.9,67.6,30.11,ESE,117,11.0,14.0,78,0.00,,---,0.04,VWS V14.01,2013-04-18 17:22:00,
2013-04-18 13:27:00,75.6,68.3,30.11,SE,126,7.0,9.0,78,0.00,,---,0.04,VWS V14.01,2013-04-18 17:27:00,
2013-04-18 13:32:00,75.3,66.4,30.11,ESE,109,10.0,17.0,74,0.00,,---,0.04,VWS V14.01,2013-04-18 17:32:00,
2013-04-18 13:37:00,75.1,67.0,30.12,ESE,115,14.0,15.0,76,0.00,,---,0.04,VWS V14.01,2013-04-18 17:37:00,
2013-04-18 13:42:00,75.1,67.4,30.11,SE,128,12.0,16.0,77,0.00,,---,0.04,VWS V14.01,2013-04-18 17:42:00,
2013-04-18 13:47:00,75.2,67.5,30.11,SSE,158,8.0,12.0,77,0.00,,---,0.04,VWS V14.01,2013-04-18 17:47:00,
2013-04-18 13:52:00,75.0,66.9,30.11,SE,127,11.0,15.0,76,0.00,,---,0.04,VWS V14.01,2013-04-18 17:52:00,
2013-04-18 13:57:00,74.8,67.1,30.11,ESE,113,12.0,16.0,77,0.00,,---,0.04,VWS V14.01,2013-04-18 17:57:00,
2013-04-18 14:02:00,75.1,67.8,30.11,SE,127,5.0,9.0,78,0.00,,---,0.04,VWS V14.01,2013-04-18 18:02:00,
2013-04-18 14:07:00,75.1,66.6,30.11,ESE,121,17.0,17.0,75,0.00,,---,0.04,VWS V14.01,2013-04-18 18:07:00,
2013-04-18 14:12:00,75.0,66.6,30.11,ESE,116,7.0,14.0,75,0.00,,---,0.04,VWS V14.01,2013-04-18 18:12:00,
2013-04-18 14:17:00,75.0,66.6,30.11,East,97,16.0,17.0,75,0.00,,---,0.04,VWS V14.01,2013-04-18 18:17:00,
2013-04-18 14:22:00,75.4,67.3,30.11,ESE,120,6.0,15.0,76,0.00,,---,0.04,VWS V14.01,2013-04-18 18:22:00,
2013-04-18 14:27:00,75.8,68.1,30.11,ESE,116,12.0,15.0,77,0.00,,---,0.04,VWS V14.01,2013-04-18 18:27:00,
2013-04-18 14:32:00,75.7,67.2,30.11,ESE,122,12.0,19.0,75,0.00,,---,0.04,VWS V14.01,2013-04-18 18:32:00,
2013-04-18 14:37:00,75.2,67.5,30.11,ESE,118,10.0,14.0,77,0.00,,---,0.04,VWS V14.01,2013-04-18 18:37:00,
2013-04-18 14:42:00,75.4,67.3,30.11,SE,141,7.0,13.0,76,0.00,,---,0.04,VWS V14.01,2013-04-18 18:42:00,
2013-04-18 14:47:00,75.6,66.7,30.10,SE,143,11.0,14.0,74,0.00,,---,0.04,VWS V14.01,2013-04-18 18:47:00,
2013-04-18 14:52:00,75.5,66.6,30.10,SSE,159,8.0,17.0,74,0.00,,---,0.04,VWS V14.01,2013-04-18 18:52:00,
2013-04-18 14:57:00,75.6,66.7,30.10,SE,134,14.0,16.0,74,0.00,,---,0.04,VWS V14.01,2013-04-18 18:57:00,
2013-04-18 15:02:00,75.6,66.7,30.10,ESE,113,13.0,13.0,74,0.00,,---,0.04,VWS V14.01,2013-04-18 19:02:00,
2013-04-18 15:07:00,75.4,66.9,30.10,SE,129,10.0,14.0,75,0.00,,---,0.04,VWS V14.01,2013-04-18 19:07:00,
2013-04-18 15:12:00,75.4,66.9,30.10,East,97,7.0,13.0,75,0.00,,---,0.04,VWS V14.01,2013-04-18 19:12:00,
2013-04-18 15:17:00,75.9,67.4,30.09,ENE,78,8.0,15.0,75,0.00,,---,0.04,VWS V14.01,2013-04-18 19:17:00,
2013-04-18 15:22:00,75.9,67.0,30.09,ESE,110,8.0,14.0,74,0.00,,---,0.04,VWS V14.01,2013-04-18 19:22:00,
2013-04-18 15:27:00,75.7,66.8,30.09,ESE,117,12.0,14.0,74,0.00,,---,0.04,VWS V14.01,2013-04-18 19:27:00,
2013-04-18 15:32:00,75.7,66.8,30.09,ESE,116,11.0,15.0,74,0.00,,---,0.04,VWS V14.01,2013-04-18 19:32:00,
2013-04-18 15:37:00,75.3,67.2,30.08,ESE,104,10.0,15.0,76,0.00,,---,0.04,VWS V14.01,2013-04-18 19:37:00,
2013-04-18 15:42:00,75.4,66.5,30.08,ESE,102,10.0,14.0,74,0.00,,---,0.04,VWS V14.01,2013-04-18 19:42:00,
2013-04-18 15:47:00,75.4,66.9,30.08,ESE,113,12.0,15.0,75,0.00,,---,0.04,VWS V14.01,2013-04-18 19:47:00,
2013-04-18 15:52:00,75.1,67.0,30.08,ESE,110,8.0,16.0,76,0.00,,---,0.04,VWS V14.01,2013-04-18 19:52:00,
2013-04-18 15:57:00,75.4,67.3,30.08,East,93,8.0,11.0,76,0.00,,---,0.04,VWS V14.01,2013-04-18 19:57:00,
2013-04-18 16:02:00,75.5,67.0,30.08,ESE,116,9.0,15.0,75,0.00,,---,0.04,VWS V14.01,2013-04-18 20:02:00,
2013-04-18 16:07:00,75.5,67.8,30.07,East,90,12.0,16.0,77,0.00,,---,0.04,VWS V14.01,2013-04-18 20:07:00,
2013-04-18 16:12:00,75.3,66.8,30.07,ESE,111,7.0,15.0,75,0.00,,---,0.04,VWS V14.01,2013-04-18 20:12:00,
2013-04-18 16:17:00,75.4,66.9,30.07,SSE,147,6.0,16.0,75,0.00,,---,0.04,VWS V14.01,2013-04-18 20:17:00,
2013-04-18 16:22:00,75.3,67.6,30.08,East,100,8.0,11.0,77,0.00,,---,0.04,VWS V14.01,2013-04-18 20:22:00,
2013-04-18 16:27:00,75.2,66.7,30.07,ESE,108,9.0,14.0,75,0.00,,---,0.04,VWS V14.01,2013-04-18 20:27:00,
2013-04-18 16:32:00,75.3,67.6,30.07,SE,126,12.0,14.0,77,0.00,,---,0.04,VWS V14.01,2013-04-18 20:32:00,
2013-04-18 16:37:00,75.2,67.5,30.07,SE,124,13.0,14.0,77,0.00,,---,0.04,VWS V14.01,2013-04-18 20:37:00,
2013-04-18 16:42:00,75.1,67.0,30.07,SE,125,11.0,13.0,76,0.00,,---,0.04,VWS V14.01,2013-04-18 20:42:00,
2013-04-18 16:47:00,75.0,67.3,30.07,ESE,103,10.0,14.0,77,0.00,,---,0.04,VWS V14.01,2013-04-18 20:47:00,
2013-04-18 16:52:00,74.9,66.8,30.07,SE,125,7.0,15.0,76,0.00,,---,0.04,VWS V14.01,2013-04-18 20:52:00,
2013-04-18 16:57:00,75.2,67.1,30.07,ESE,110,8.0,13.0,76,0.00,,---,0.04,VWS V14.01,2013-04-18 20:57:00,
2013-04-18 17:02:00,75.2,67.1,30.06,ESE,114,7.0,12.0,76,0.00,,---,0.04,VWS V14.01,2013-04-18 21:02:00,
2013-04-18 17:07:00,75.5,67.8,30.07,East,84,8.0,11.0,77,0.00,,---,0.04,VWS V14.01,2013-04-18 21:07:00,
2013-04-18 17:12:00,75.3,67.2,30.07,ESE,104,6.0,13.0,76,0.00,,---,0.04,VWS V14.01,2013-04-18 21:12:00,
2013-04-18 17:17:00,75.3,68.0,30.06,East,101,8.0,9.0,78,0.00,,---,0.04,VWS V14.01,2013-04-18 21:17:00,
2013-04-18 17:22:00,75.4,68.1,30.07,SE,132,7.0,11.0,78,0.00,,---,0.04,VWS V14.01,2013-04-18 21:22:00,
2013-04-18 17:27:00,75.2,67.9,30.07,East,100,6.0,12.0,78,0.00,,---,0.04,VWS V14.01,2013-04-18 21:27:00,
2013-04-18 17:32:00,75.4,67.7,30.07,East,93,7.0,11.0,77,0.00,,---,0.04,VWS V14.01,2013-04-18 21:32:00,
2013-04-18 17:37:00,75.7,68.0,30.06,ENE,75,7.0,11.0,77,0.00,,---,0.04,VWS V14.01,2013-04-18 21:37:00,
2013-04-18 17:42:00,75.9,67.4,30.06,East,86,9.0,14.0,75,0.00,,---,0.04,VWS V14.01,2013-04-18 21:42:00,
2013-04-18 17:47:00,75.4,67.7,30.06,East,92,10.0,11.0,77,0.00,,---,0.04,VWS V14.01,2013-04-18 21:47:00,
2013-04-18 17:52:00,75.1,67.8,30.06,East,97,7.0,10.0,78,0.00,,---,0.04,VWS V14.01,2013-04-18 21:52:00,
2013-04-18 17:57:00,74.8,67.1,30.06,ESE,111,7.0,9.0,77,0.00,,---,0.04,VWS V14.01,2013-04-18 21:57:00,
2013-04-18 18:02:00,74.5,67.2,30.06,ESE,108,5.0,9.0,78,0.00,,---,0.04,VWS V14.01,2013-04-18 22:02:00,
2013-04-18 18:07:00,74.5,67.9,30.06,SE,131,5.0,8.0,80,0.00,,---,0.04,VWS V14.01,2013-04-18 22:07:00,
2013-04-18 18:12:00,74.8,67.5,30.06,East,88,9.0,10.0,78,0.00,,---,0.04,VWS V14.01,2013-04-18 22:12:00,
2013-04-18 18:17:00,74.7,67.8,30.06,ESE,119,8.0,10.0,79,0.00,,---,0.04,VWS V14.01,2013-04-18 22:17:00,
2013-04-18 18:22:00,74.6,67.7,30.05,East,96,8.0,11.0,79,0.00,,---,0.04,VWS V14.01,2013-04-18 22:22:00,
2013-04-18 18:27:00,74.7,68.1,30.05,ESE,108,6.0,9.0,80,0.00,,---,0.04,VWS V14.01,2013-04-18 22:27:00,
2013-04-18 18:32:00,74.7,68.1,30.05,East,95,6.0,7.0,80,0.00,,---,0.04,VWS V14.01,2013-04-18 22:32:00,
2013-04-18 18:37:00,74.6,68.0,30.05,East,98,6.0,10.0,80,0.00,,---,0.04,VWS V14.01,2013-04-18 22:37:00,
2013-04-18 18:42:00,74.6,68.0,30.04,ESE,116,6.0,10.0,80,0.00,,---,0.04,VWS V14.01,2013-04-18 22:42:00,
2013-04-18 18:47:00,74.5,68.3,30.04,ESE,121,6.0,10.0,81,0.00,,---,0.04,VWS V14.01,2013-04-18 22:47:00,
2013-04-18 18:52:00,74.2,67.6,30.04,ESE,117,6.0,11.0,80,0.00,,---,0.04,VWS V14.01,2013-04-18 22:52:00,
2013-04-18 18:57:00,74.0,68.2,30.04,East,94,10.0,10.0,82,0.00,,---,0.04,VWS V14.01,2013-04-18 22:57:00,
2013-04-18 19:02:00,73.7,68.2,30.03,East,92,4.0,7.0,83,0.00,,---,0.04,VWS V14.01,2013-04-18 23:02:00,
2013-04-18 19:07:00,73.4,67.9,30.03,East,92,5.0,9.0,83,0.00,,---,0.04,VWS V14.01,2013-04-18 23:07:00,
2013-04-18 19:12:00,73.3,67.8,30.03,East,82,5.0,7.0,83,0.00,,---,0.04,VWS V14.01,2013-04-18 23:12:00,
2013-04-18 19:17:00,73.1,68.0,30.03,East,80,4.0,7.0,84,0.00,,---,0.04,VWS V14.01,2013-04-18 23:17:00,
2013-04-18 19:22:00,72.8,67.7,30.03,East,86,4.0,6.0,84,0.00,,---,0.04,VWS V14.01,2013-04-18 23:22:00,
2013-04-18 19:27:00,72.6,67.5,30.03,East,85,4.0,5.0,84,0.00,,---,0.04,VWS V14.01,2013-04-18 23:27:00,
2013-04-18 19:32:00,72.5,67.7,30.03,East,83,5.0,6.0,85,0.00,,---,0.04,VWS V14.01,2013-04-18 23:32:00,
2013-04-18 19:37:00,72.4,67.6,30.03,ESE,111,6.0,7.0,85,0.00,,---,0.04,VWS V14.01,2013-04-18 23:37:00,
2013-04-18 19:42:00,72.2,67.8,30.03,East,96,4.0,6.0,86,0.00,,---,0.04,VWS V14.01,2013-04-18 23:42:00,
2013-04-18 19:47:00,72.1,67.7,30.03,East,88,7.0,8.0,86,0.00,,---,0.04,VWS V14.01,2013-04-18 23:47:00,
2013-04-18 19:52:00,71.9,67.5,30.03,East,88,2.0,4.0,86,0.00,,---,0.04,VWS V14.01,2013-04-18 23:52:00,
2013-04-18 19:57:00,71.8,67.7,30.03,East,91,4.0,4.0,87,0.00,,---,0.04,VWS V14.01,2013-04-18 23:57:00,
2013-04-18 20:02:00,71.6,67.5,30.04,East,86,2.0,3.0,87,0.00,,---,0.04,VWS V14.01,2013-04-19 00:02:00,
2013-04-18 20:07:00,71.5,67.8,30.04,East,84,4.0,4.0,88,0.00,,---,0.04,VWS V14.01,2013-04-19 00:07:00,
2013-04-18 20:12:00,71.4,67.7,30.04,ESE,102,3.0,5.0,88,0.00,,---,0.04,VWS V14.01,2013-04-19 00:12:00,
2013-04-18 20:17:00,71.2,67.8,30.03,ESE,103,2.0,4.0,89,0.00,,---,0.04,VWS V14.01,2013-04-19 00:17:00,
2013-04-18 20:22:00,71.1,67.7,30.04,East,93,3.0,4.0,89,0.00,,---,0.04,VWS V14.01,2013-04-19 00:22:00,
2013-04-18 20:27:00,71.0,67.9,30.04,East,86,4.0,4.0,90,0.00,,---,0.04,VWS V14.01,2013-04-19 00:27:00,
2013-04-18 20:32:00,70.9,67.8,30.04,ESE,104,4.0,5.0,90,0.00,,---,0.04,VWS V14.01,2013-04-19 00:32:00,
2013-04-18 20:37:00,70.8,67.7,30.04,SE,125,3.0,5.0,90,0.00,,---,0.04,VWS V14.01,2013-04-19 00:37:00,
2013-04-18 20:42:00,70.7,67.6,30.04,East,96,3.0,4.0,90,0.00,,---,0.04,VWS V14.01,2013-04-19 00:42:00,
2013-04-18 20:47:00,70.6,67.8,30.04,East,96,3.0,4.0,91,0.00,,---,0.04,VWS V14.01,2013-04-19 00:47:00,
2013-04-18 20:52:00,70.6,67.8,30.04,East,90,5.0,7.0,91,0.00,,---,0.04,VWS V14.01,2013-04-19 00:52:00,
2013-04-18 20:57:00,70.5,67.8,30.03,East,100,5.0,6.0,91,0.00,,---,0.04,VWS V14.01,2013-04-19 00:57:00,
2013-04-18 21:02:00,70.4,67.7,30.03,ESE,117,6.0,7.0,91,0.00,,---,0.04,VWS V14.01,2013-04-19 01:02:00,
2013-04-18 21:07:00,70.4,68.0,30.04,East,94,3.0,6.0,92,0.00,,---,0.04,VWS V14.01,2013-04-19 01:07:00,
2013-04-18 21:12:00,70.4,68.0,30.04,East,86,5.0,9.0,92,0.00,,---,0.04,VWS V14.01,2013-04-19 01:12:00,
2013-04-18 21:17:00,70.7,67.9,30.05,SE,124,4.0,7.0,91,0.00,,---,0.04,VWS V14.01,2013-04-19 01:17:00,
2013-04-18 21:22:00,71.0,68.2,30.05,ESE,122,6.0,6.0,91,0.00,,---,0.04,VWS V14.01,2013-04-19 01:22:00,
2013-04-18 21:27:00,71.1,68.3,30.06,SE,124,4.0,5.0,91,0.00,,---,0.04,VWS V14.01,2013-04-19 01:27:00,
2013-04-18 21:32:00,70.9,68.2,30.06,East,95,4.0,5.0,91,0.00,,---,0.04,VWS V14.01,2013-04-19 01:32:00,
2013-04-18 21:37:00,70.7,68.3,30.05,ESE,118,4.0,6.0,92,0.00,,---,0.04,VWS V14.01,2013-04-19 01:37:00,
2013-04-18 21:42:00,70.7,68.3,30.05,ESE,121,6.0,8.0,92,0.00,,---,0.04,VWS V14.01,2013-04-19 01:42:00,
2013-04-18 21:47:00,70.8,68.4,30.05,ESE,104,8.0,9.0,92,0.00,,---,0.04,VWS V14.01,2013-04-19 01:47:00,
2013-04-18 21:52:00,71.1,68.7,30.05,ESE,105,6.0,9.0,92,0.00,,---,0.04,VWS V14.01,2013-04-19 01:52:00,
2013-04-18 21:57:00,71.1,68.7,30.05,ESE,116,8.0,9.0,92,0.00,,---,0.04,VWS V14.01,2013-04-19 01:57:00,
2013-04-18 22:02:00,71.2,68.8,30.05,ESE,104,7.0,9.0,92,0.00,,---,0.04,VWS V14.01,2013-04-19 02:02:00,
2013-04-18 22:07:00,71.2,68.4,30.04,East,101,9.0,11.0,91,0.00,,---,0.04,VWS V14.01,2013-04-19 02:07:00,
2013-04-18 22:12:00,71.2,68.4,30.04,ESE,111,9.0,10.0,91,0.00,,---,0.04,VWS V14.01,2013-04-19 02:12:00,
2013-04-18 22:17:00,71.3,68.5,30.04,ESE,110,8.0,11.0,91,0.00,,---,0.04,VWS V14.01,2013-04-19 02:17:00,
2013-04-18 22:22:00,71.4,68.6,30.04,ESE,114,9.0,11.0,91,0.00,,---,0.04,VWS V14.01,2013-04-19 02:22:00,
2013-04-18 22:27:00,71.5,68.7,30.04,ESE,104,7.0,8.0,91,0.00,,---,0.04,VWS V14.01,2013-04-19 02:27:00,
2013-04-18 22:32:00,71.6,68.8,30.04,ESE,117,8.0,9.0,91,0.00,,---,0.04,VWS V14.01,2013-04-19 02:32:00,
2013-04-18 22:37:00,71.5,68.7,30.05,SE,127,5.0,7.0,91,0.00,,---,0.04,VWS V14.01,2013-04-19 02:37:00,
2013-04-18 22:42:00,71.4,68.6,30.05,SE,132,3.0,9.0,91,0.00,,---,0.04,VWS V14.01,2013-04-19 02:42:00,
2013-04-18 22:47:00,71.3,68.5,30.05,ESE,120,3.0,9.0,91,0.00,,---,0.04,VWS V14.01,2013-04-19 02:47:00,
2013-04-18 22:52:00,71.4,68.6,30.05,ESE,120,5.0,9.0,91,0.00,,---,0.04,VWS V14.01,2013-04-19 02:52:00,
2013-04-18 22:57:00,71.4,68.6,30.05,SE,141,4.0,8.0,91,0.00,,---,0.04,VWS V14.01,2013-04-19 02:57:00,
2013-04-18 23:02:00,71.4,68.6,30.04,SE,132,7.0,9.0,91,0.00,,---,0.04,VWS V14.01,2013-04-19 03:02:00,
2013-04-18 23:07:00,71.3,68.5,30.04,SE,127,6.0,8.0,91,0.00,,---,0.04,VWS V14.01,2013-04-19 03:07:00,
2013-04-18 23:12:00,71.2,68.4,30.04,SE,125,4.0,7.0,91,0.00,,---,0.04,VWS V14.01,2013-04-19 03:12:00,
2013-04-18 23:17:00,71.2,68.4,30.04,ESE,117,7.0,9.0,91,0.00,,---,0.04,VWS V14.01,2013-04-19 03:17:00,
2013-04-18 23:22:00,71.2,68.4,30.04,SE,134,3.0,8.0,91,0.00,,---,0.04,VWS V14.01,2013-04-19 03:22:00,
2013-04-18 23:27:00,71.1,68.7,30.04,ESE,106,6.0,6.0,92,0.00,,---,0.04,VWS V14.01,2013-04-19 03:27:00,
2013-04-18 23:32:00,71.0,68.6,30.04,SE,141,3.0,7.0,92,0.00,,---,0.04,VWS V14.01,2013-04-19 03:32:00,
2013-04-18 23:37:00,70.9,68.5,30.04,SE,143,4.0,5.0,92,0.00,,---,0.04,VWS V14.01,2013-04-19 03:37:00,
2013-04-18 23:42:00,70.8,68.4,30.04,SSE,166,4.0,6.0,92,0.00,,---,0.04,VWS V14.01,2013-04-19 03:42:00,
2013-04-18 23:47:00,70.7,68.3,30.04,SE,129,3.0,7.0,92,0.00,,---,0.04,VWS V14.01,2013-04-19 03:47:00,
2013-04-18 23:52:00,70.7,68.6,30.03,SE,134,5.0,6.0,93,0.00,,---,0.04,VWS V14.01,2013-04-19 03:52:00,
2013-04-18 23:57:00,70.8,68.4,30.03,SE,143,3.0,8.0,92,0.00,,---,0.04,VWS V14.01,2013-04-19 03:57:00,